• Join FlightAware (Why Join?)
  • Login
  • US Flag 
11:21PM EDT


 

Airport Tracker/Info


-or-


 

Live Flight TrackerFlight Track Log ✈ FLG3861 ✈ 23-Sep-2013 ✈ KDTW - KBGM

Flight Track Log - Related Links

Times and Time Zones

All times are in EDT time to prevent confusion due to time zone crossing. See the FLG3861 flight status page for this flight to view local times or setup timezone preferences in your user account.

Time Position Orientation Groundspeed Altitude Reporting Facility
EDT Latitude Longitude Course Direction KTS MPH feet Rate Location/Type
09:53PM 42.2061 -83.3672 184° South 171 197 1,100  Level Cleveland Center
09:54PM 42.1597 -83.3719 184° South 200 230 3,300 2,040 Climbing Cleveland Center
09:55PM 42.1358 -83.3686 174° South 193 222 4,100 1,740 Climbing Cleveland Center
09:55PM 42.1014 -83.3664 177° South 262 302 4,900 2,100 Climbing Cleveland Center
09:56PM 42.0567 -83.3511 166° South 266 306 6,300 2,220 Climbing Cleveland Center
09:56PM 42.0467 -83.3167 111° Southeast 280 322 7,200 2,400 Climbing Cleveland Center
09:57PM 42.0531 -83.2508 83° East 279 321 8,800 2,400 Climbing Cleveland Center
09:57PM 42.0694 -83.2100 62° Northeast 284 327 9,900 1,800 Climbing Cleveland Center
09:58PM 42.0844 -83.1681 64° Northeast 282 325 10,700 1,320 Climbing Cleveland Center
09:59PM 42.1264 -83.0653 61° Northeast 313 360 12,000 1,560 Climbing Cleveland Center
10:00PM 42.1792 -82.9303 62° Northeast 338 389 14,000 1,800 Climbing Cleveland Center
10:01PM 42.2244 -82.8167 62° Northeast 345 397 15,700 1,320 Climbing Cleveland Center
10:02PM 42.2706 -82.6989 62° Northeast 355 409 16,800 1,020 Climbing Cleveland Center
10:03PM 42.3192 -82.5769 62° Northeast 367 422 17,800 840 Climbing Cleveland Center
10:04PM 42.3653 -82.4478 64° Northeast 378 435 18,600 900 Climbing Cleveland Center
10:05PM 42.3611 -82.2969 92° East 396 456 19,700 960 Climbing Cleveland Center
10:06PM 42.3544 -82.1372 93° East 402 463 20,600 780 Climbing Cleveland Center
10:07PM 42.3478 -81.9781 93° East 415 478 21,300 660 Climbing Cleveland Center
10:08PM 42.3411 -81.8169 93° East 424 488 22,000 660 Climbing Cleveland Center
10:09PM 42.3328 -81.6544 94° East 428 493 22,700 780 Climbing Cleveland Center
10:10PM 42.3242 -81.4617 93° East 435 501 23,600 780 Climbing Cleveland Center
10:11PM 42.3172 -81.2964 93° East 437 503 24,300 660 Climbing Cleveland Center
10:12PM 42.3072 -81.1297 95° East 439 505 25,000 660 Climbing Cleveland Center
10:13PM 42.2989 -80.9625 94° East 441 507 25,700 660 Climbing Cleveland Center
10:14PM 42.2906 -80.7947 94° East 443 510 26,400 600 Climbing Cleveland Center
10:15PM 42.2828 -80.6292 94° East 439 505 27,000 240 Climbing Cleveland Center
10:16PM 42.2725 -80.4556 95° East 456 525 27,000  Level Cleveland Center
10:17PM 42.2633 -80.2850 94° East 468 539 27,000  Level Cleveland Center
10:18PM 42.2519 -80.1017 95° East 467 537 27,000  Level Cleveland Center
10:19PM 42.2428 -79.9394 94° East 464 534 27,000  Level Cleveland Center
10:20PM 42.2292 -79.7311 95° East 467 537 27,000  Level Cleveland Center
10:21PM 42.2181 -79.5592 95° East 465 535 27,000  Level Cleveland Center
10:22PM 42.2064 -79.3844 95° East 468 539 27,000  Level Cleveland Center
10:23PM 42.1944 -79.2106 95° East 468 539 27,000  Level Cleveland Center
10:24PM 42.1900 -79.0378 92° East 464 534 27,000  Level Cleveland Center
10:26PM 42.1933 -78.8667 88° East 463 533 27,000  Level Cleveland Center
10:27PM 42.1964 -78.6928 89° East 465 535 27,000 -780 Level Cleveland Center
10:28PM 42.1997 -78.4864 89° East 462 532 25,500 -1,500 Descending Cleveland Center
10:29PM 42.2014 -78.3164 89° East 459 528 24,000 -1,260 Descending Cleveland Center
10:30PM 42.2036 -78.1506 89° East 449 517 23,000 -540 Descending Cleveland Center
10:31PM 42.2064 -77.9839 89° East 449 517 23,000 -540 Level Cleveland Center
10:32PM 42.2072 -77.8147 90° East 455 524 22,000 -1,020 Descending Cleveland Center
10:33PM 42.2094 -77.6467 89° East 454 522 21,000 -1,140 Descending Cleveland Center
10:34PM 42.2103 -77.4775 90° East 456 525 19,800 -1,680 Descending Cleveland Center
10:35PM 42.2122 -77.2806 89° East 446 513 17,600 -1,380 Descending Cleveland Center
10:36PM 42.2119 -77.1258 90° East 423 487 17,000 -840 Descending Cleveland Center
10:37PM 42.2131 -76.9714 89° East 416 479 16,000 -1,380 Descending Cleveland Center
10:38PM 42.2133 -76.8186 90° East 413 475 14,200 -1,800 Descending Cleveland Center
10:39PM 42.2125 -76.6828 90° East 370 426 12,400 -1,800 Descending Cleveland Center
10:40PM 42.2122 -76.5611 90° East 332 382 10,600 -1,620 Descending Cleveland Center
10:41PM 42.2125 -76.4500 90° East 303 349 9,200 -960 Descending Cleveland Center
10:42PM 42.2100 -76.3644 92° East 306 352 9,000 -540 Descending New York Center
10:43PM 42.2089 -76.2553 91° East 291 335 8,300 -1,140 Descending New York Center
10:44PM 42.2075 -76.1517 91° East 285 328 6,800 -1,560 Descending New York Center
10:45PM 42.1564 -76.0831 135° Southeast 249 287 5,300 -1,500 Descending New York Center
10:46PM 42.0897 -76.0358 152° Southeast 249 287 3,800 -840 Descending New York Center
10:47PM 42.0867 -75.9656 93° East 201 231 3,600 -120 Descending New York Center
10:48PM 42.1200 -75.9181 47° Northeast 154 177 3,600 -480 Level New York Center
10:49PM 42.1544 -75.9375 337° Northwest 91 105 2,700 -780 Descending New York Center
10:50PM 42.1847 -75.9594 332° Northwest 98 113 2,100 -300 Descending New York Center
10:51PM 42.2078 -75.9583 North 98 113 2,100  Level New York Center